sensor_id;sensor_type;location;lat;lon;timestamp;P1;durP1;ratioP1;P2;durP2;ratioP2
74939;SDS011;63505;45.226;37.908;2023-05-24T00:02:12;10.93;;;6.93;;
74939;SDS011;63505;45.226;37.908;2023-05-24T00:04:39;10.93;;;6.25;;
74939;SDS011;63505;45.226;37.908;2023-05-24T00:07:06;14.98;;;7.38;;
74939;SDS011;63505;45.226;37.908;2023-05-24T00:09:32;13.27;;;7.53;;
74939;SDS011;63505;45.226;37.908;2023-05-24T00:11:57;12.73;;;6.72;;
74939;SDS011;63505;45.226;37.908;2023-05-24T00:14:23;16.52;;;6.95;;
74939;SDS011;63505;45.226;37.908;2023-05-24T00:16:49;11.35;;;7.13;;
74939;SDS011;63505;45.226;37.908;2023-05-24T00:19:15;13.27;;;7.53;;
74939;SDS011;63505;45.226;37.908;2023-05-24T00:21:45;13.73;;;7.53;;
74939;SDS011;63505;45.226;37.908;2023-05-24T00:24:12;14.13;;;7.63;;
74939;SDS011;63505;45.226;37.908;2023-05-24T00:26:38;14.20;;;6.57;;
74939;SDS011;63505;45.226;37.908;2023-05-24T00:29:04;13.85;;;7.30;;
74939;SDS011;63505;45.226;37.908;2023-05-24T00:31:31;15.73;;;8.43;;
74939;SDS011;63505;45.226;37.908;2023-05-24T00:33:57;13.32;;;8.70;;
74939;SDS011;63505;45.226;37.908;2023-05-24T00:36:23;15.40;;;7.15;;
74939;SDS011;63505;45.226;37.908;2023-05-24T00:38:49;11.68;;;7.38;;
74939;SDS011;63505;45.226;37.908;2023-05-24T00:41:17;11.85;;;7.10;;
74939;SDS011;63505;45.226;37.908;2023-05-24T00:43:43;11.90;;;6.97;;
74939;SDS011;63505;45.226;37.908;2023-05-24T00:49:08;18.98;;;7.75;;
74939;SDS011;63505;45.226;37.908;2023-05-24T00:51:34;14.90;;;5.45;;
74939;SDS011;63505;45.226;37.908;2023-05-24T00:54:01;10.18;;;5.63;;
74939;SDS011;63505;45.226;37.908;2023-05-24T00:56:27;12.20;;;6.80;;
74939;SDS011;63505;45.226;37.908;2023-05-24T00:58:53;10.55;;;6.70;;
74939;SDS011;63505;45.226;37.908;2023-05-24T01:01:20;11.70;;;6.50;;
74939;SDS011;63505;45.226;37.908;2023-05-24T01:03:51;17.27;;;7.13;;
74939;SDS011;63505;45.226;37.908;2023-05-24T01:06:18;12.10;;;6.30;;
74939;SDS011;63505;45.226;37.908;2023-05-24T01:08:47;10.55;;;6.20;;
74939;SDS011;63505;45.226;37.908;2023-05-24T01:11:34;11.38;;;5.53;;
74939;SDS011;63505;45.226;37.908;2023-05-24T01:14:17;13.65;;;5.32;;
74939;SDS011;63505;45.226;37.908;2023-05-24T01:19:42;11.07;;;5.88;;
74939;SDS011;63505;45.226;37.908;2023-05-24T01:25:11;10.98;;;5.93;;
74939;SDS011;63505;45.226;37.908;2023-05-24T01:27:47;13.43;;;5.63;;
74939;SDS011;63505;45.226;37.908;2023-05-24T01:30:15;13.75;;;6.53;;
74939;SDS011;63505;45.226;37.908;2023-05-24T01:32:41;13.10;;;6.80;;
74939;SDS011;63505;45.226;37.908;2023-05-24T01:35:08;12.00;;;7.10;;
74939;SDS011;63505;45.226;37.908;2023-05-24T01:37:34;14.88;;;8.55;;
74939;SDS011;63505;45.226;37.908;2023-05-24T01:40:00;14.90;;;8.52;;
74939;SDS011;63505;45.226;37.908;2023-05-24T01:42:35;19.70;;;10.13;;
74939;SDS011;63505;45.226;37.908;2023-05-24T01:45:24;15.05;;;8.68;;
74939;SDS011;63505;45.226;37.908;2023-05-24T01:50:59;20.77;;;11.40;;
74939;SDS011;63505;45.226;37.908;2023-05-24T01:53:31;23.25;;;13.15;;
74939;SDS011;63505;45.226;37.908;2023-05-24T01:56:00;30.90;;;13.50;;
74939;SDS011;63505;45.226;37.908;2023-05-24T01:58:27;22.13;;;10.63;;
74939;SDS011;63505;45.226;37.908;2023-05-24T02:00:55;26.15;;;13.25;;
74939;SDS011;63505;45.226;37.908;2023-05-24T02:03:23;25.58;;;12.10;;
74939;SDS011;63505;45.226;37.908;2023-05-24T02:05:48;21.17;;;11.50;;
74939;SDS011;63505;45.226;37.908;2023-05-24T02:08:14;27.25;;;13.07;;
74939;SDS011;63505;45.226;37.908;2023-05-24T02:10:40;27.25;;;12.90;;
74939;SDS011;63505;45.226;37.908;2023-05-24T02:13:07;28.13;;;15.30;;
74939;SDS011;63505;45.226;37.908;2023-05-24T02:15:33;24.95;;;12.75;;
74939;SDS011;63505;45.226;37.908;2023-05-24T02:18:02;23.15;;;11.15;;
74939;SDS011;63505;45.226;37.908;2023-05-24T02:20:32;25.05;;;11.10;;
74939;SDS011;63505;45.226;37.908;2023-05-24T02:23:04;26.52;;;13.65;;
74939;SDS011;63505;45.226;37.908;2023-05-24T02:25:35;25.02;;;12.85;;
74939;SDS011;63505;45.226;37.908;2023-05-24T02:28:01;22.00;;;11.68;;
74939;SDS011;63505;45.226;37.908;2023-05-24T02:30:27;26.42;;;13.40;;
74939;SDS011;63505;45.226;37.908;2023-05-24T02:32:53;18.92;;;9.95;;
74939;SDS011;63505;45.226;37.908;2023-05-24T02:35:20;25.92;;;11.88;;
74939;SDS011;63505;45.226;37.908;2023-05-24T02:37:46;25.85;;;12.00;;
74939;SDS011;63505;45.226;37.908;2023-05-24T02:40:13;24.73;;;12.10;;
74939;SDS011;63505;45.226;37.908;2023-05-24T02:42:39;22.00;;;13.07;;
74939;SDS011;63505;45.226;37.908;2023-05-24T02:45:05;24.90;;;13.65;;
74939;SDS011;63505;45.226;37.908;2023-05-24T02:47:31;25.10;;;13.35;;
74939;SDS011;63505;45.226;37.908;2023-05-24T02:49:57;28.38;;;14.40;;
74939;SDS011;63505;45.226;37.908;2023-05-24T02:52:23;27.48;;;14.75;;
74939;SDS011;63505;45.226;37.908;2023-05-24T02:54:49;30.02;;;14.43;;
74939;SDS011;63505;45.226;37.908;2023-05-24T02:57:17;27.83;;;15.45;;
74939;SDS011;63505;45.226;37.908;2023-05-24T02:59:44;26.60;;;15.02;;
74939;SDS011;63505;45.226;37.908;2023-05-24T03:02:10;28.50;;;15.27;;
74939;SDS011;63505;45.226;37.908;2023-05-24T03:04:38;29.17;;;16.23;;
74939;SDS011;63505;45.226;37.908;2023-05-24T03:07:07;24.02;;;11.25;;
74939;SDS011;63505;45.226;37.908;2023-05-24T03:09:35;27.27;;;14.23;;
74939;SDS011;63505;45.226;37.908;2023-05-24T03:12:01;26.60;;;15.07;;
74939;SDS011;63505;45.226;37.908;2023-05-24T03:14:30;27.88;;;13.60;;
74939;SDS011;63505;45.226;37.908;2023-05-24T03:16:57;22.05;;;10.95;;
74939;SDS011;63505;45.226;37.908;2023-05-24T03:19:23;26.42;;;14.02;;
74939;SDS011;63505;45.226;37.908;2023-05-24T03:21:50;24.60;;;11.75;;
74939;SDS011;63505;45.226;37.908;2023-05-24T03:24:16;24.98;;;12.70;;
74939;SDS011;63505;45.226;37.908;2023-05-24T03:26:42;35.10;;;18.58;;
74939;SDS011;63505;45.226;37.908;2023-05-24T03:29:08;21.92;;;11.13;;
74939;SDS011;63505;45.226;37.908;2023-05-24T03:31:38;24.02;;;12.63;;
74939;SDS011;63505;45.226;37.908;2023-05-24T03:34:04;12.05;;;7.95;;
74939;SDS011;63505;45.226;37.908;2023-05-24T03:36:32;9.32;;;7.13;;
74939;SDS011;63505;45.226;37.908;2023-05-24T03:38:58;15.27;;;8.75;;
74939;SDS011;63505;45.226;37.908;2023-05-24T03:41:25;23.67;;;12.15;;
74939;SDS011;63505;45.226;37.908;2023-05-24T03:43:55;28.13;;;12.93;;
74939;SDS011;63505;45.226;37.908;2023-05-24T03:46:22;21.33;;;11.57;;
74939;SDS011;63505;45.226;37.908;2023-05-24T03:48:48;23.75;;;11.48;;
74939;SDS011;63505;45.226;37.908;2023-05-24T03:51:14;17.40;;;10.68;;
74939;SDS011;63505;45.226;37.908;2023-05-24T03:53:39;85.00;;;47.90;;
74939;SDS011;63505;45.226;37.908;2023-05-24T03:56:05;22.00;;;12.70;;
74939;SDS011;63505;45.226;37.908;2023-05-24T03:58:31;20.35;;;10.32;;
74939;SDS011;63505;45.226;37.908;2023-05-24T04:00:57;17.65;;;9.85;;
74939;SDS011;63505;45.226;37.908;2023-05-24T04:03:23;19.35;;;8.45;;
74939;SDS011;63505;45.226;37.908;2023-05-24T04:05:50;18.00;;;9.00;;
74939;SDS011;63505;45.226;37.908;2023-05-24T04:08:16;14.50;;;8.52;;
74939;SDS011;63505;45.226;37.908;2023-05-24T04:10:42;15.30;;;9.10;;
74939;SDS011;63505;45.226;37.908;2023-05-24T04:13:10;16.40;;;7.95;;
74939;SDS011;63505;45.226;37.908;2023-05-24T04:15:35;10.20;;;5.88;;
74939;SDS011;63505;45.226;37.908;2023-05-24T04:18:05;12.05;;;7.47;;
74939;SDS011;63505;45.226;37.908;2023-05-24T04:20:33;13.00;;;8.60;;
74939;SDS011;63505;45.226;37.908;2023-05-24T04:22:58;11.00;;;8.35;;
74939;SDS011;63505;45.226;37.908;2023-05-24T04:25:25;10.07;;;6.57;;
74939;SDS011;63505;45.226;37.908;2023-05-24T04:27:53;9.40;;;5.88;;
74939;SDS011;63505;45.226;37.908;2023-05-24T04:30:20;14.93;;;5.75;;
74939;SDS011;63505;45.226;37.908;2023-05-24T04:32:46;14.70;;;7.97;;
74939;SDS011;63505;45.226;37.908;2023-05-24T04:35:13;11.50;;;5.35;;
74939;SDS011;63505;45.226;37.908;2023-05-24T04:37:39;14.23;;;8.23;;
74939;SDS011;63505;45.226;37.908;2023-05-24T04:40:06;8.73;;;6.38;;
74939;SDS011;63505;45.226;37.908;2023-05-24T04:42:33;8.07;;;4.50;;
74939;SDS011;63505;45.226;37.908;2023-05-24T04:45:00;14.05;;;8.63;;
74939;SDS011;63505;45.226;37.908;2023-05-24T04:47:25;17.88;;;9.57;;
74939;SDS011;63505;45.226;37.908;2023-05-24T04:49:51;17.67;;;9.90;;
74939;SDS011;63505;45.226;37.908;2023-05-24T04:52:17;18.02;;;10.13;;
74939;SDS011;63505;45.226;37.908;2023-05-24T04:54:43;14.85;;;8.32;;
74939;SDS011;63505;45.226;37.908;2023-05-24T04:57:09;15.98;;;8.77;;
74939;SDS011;63505;45.226;37.908;2023-05-24T04:59:35;14.48;;;8.75;;
74939;SDS011;63505;45.226;37.908;2023-05-24T05:02:01;17.30;;;8.10;;
74939;SDS011;63505;45.226;37.908;2023-05-24T05:04:27;16.08;;;9.38;;
74939;SDS011;63505;45.226;37.908;2023-05-24T05:06:53;15.35;;;8.23;;
74939;SDS011;63505;45.226;37.908;2023-05-24T05:09:19;17.55;;;9.98;;
74939;SDS011;63505;45.226;37.908;2023-05-24T05:11:47;13.13;;;7.90;;
74939;SDS011;63505;45.226;37.908;2023-05-24T05:14:13;15.85;;;9.60;;
74939;SDS011;63505;45.226;37.908;2023-05-24T05:16:38;5.88;;;4.47;;
74939;SDS011;63505;45.226;37.908;2023-05-24T05:19:05;13.45;;;8.32;;
74939;SDS011;63505;45.226;37.908;2023-05-24T05:21:31;10.43;;;6.05;;
74939;SDS011;63505;45.226;37.908;2023-05-24T05:23:59;16.13;;;8.95;;
74939;SDS011;63505;45.226;37.908;2023-05-24T05:26:25;15.30;;;9.02;;
74939;SDS011;63505;45.226;37.908;2023-05-24T05:28:52;18.13;;;8.77;;
74939;SDS011;63505;45.226;37.908;2023-05-24T05:31:19;16.23;;;9.00;;
74939;SDS011;63505;45.226;37.908;2023-05-24T05:33:45;13.68;;;9.48;;
74939;SDS011;63505;45.226;37.908;2023-05-24T05:36:11;15.52;;;7.72;;
74939;SDS011;63505;45.226;37.908;2023-05-24T05:38:37;10.13;;;6.65;;
74939;SDS011;63505;45.226;37.908;2023-05-24T05:41:02;13.07;;;8.48;;
74939;SDS011;63505;45.226;37.908;2023-05-24T05:43:29;14.82;;;7.97;;
74939;SDS011;63505;45.226;37.908;2023-05-24T05:45:55;16.08;;;7.63;;
74939;SDS011;63505;45.226;37.908;2023-05-24T05:48:21;6.82;;;4.25;;
74939;SDS011;63505;45.226;37.908;2023-05-24T05:50:47;15.40;;;9.18;;
74939;SDS011;63505;45.226;37.908;2023-05-24T05:53:14;14.15;;;8.43;;
74939;SDS011;63505;45.226;37.908;2023-05-24T05:55:40;17.90;;;8.95;;
74939;SDS011;63505;45.226;37.908;2023-05-24T05:58:06;16.88;;;8.77;;
74939;SDS011;63505;45.226;37.908;2023-05-24T06:00:32;12.88;;;7.85;;
74939;SDS011;63505;45.226;37.908;2023-05-24T06:02:58;14.75;;;7.93;;
74939;SDS011;63505;45.226;37.908;2023-05-24T06:05:23;14.35;;;8.90;;
74939;SDS011;63505;45.226;37.908;2023-05-24T06:07:49;15.18;;;8.27;;
74939;SDS011;63505;45.226;37.908;2023-05-24T06:10:15;15.48;;;8.45;;
74939;SDS011;63505;45.226;37.908;2023-05-24T06:12:41;16.65;;;8.57;;
74939;SDS011;63505;45.226;37.908;2023-05-24T06:15:07;11.32;;;7.43;;
74939;SDS011;63505;45.226;37.908;2023-05-24T06:17:34;12.80;;;7.95;;
74939;SDS011;63505;45.226;37.908;2023-05-24T06:20:02;12.82;;;8.02;;
74939;SDS011;63505;45.226;37.908;2023-05-24T06:22:32;14.70;;;7.57;;
74939;SDS011;63505;45.226;37.908;2023-05-24T06:24:57;15.05;;;8.65;;
74939;SDS011;63505;45.226;37.908;2023-05-24T06:27:23;12.43;;;7.47;;
74939;SDS011;63505;45.226;37.908;2023-05-24T06:29:49;15.40;;;9.23;;
74939;SDS011;63505;45.226;37.908;2023-05-24T06:32:15;13.73;;;7.05;;
74939;SDS011;63505;45.226;37.908;2023-05-24T06:34:41;12.32;;;7.22;;
74939;SDS011;63505;45.226;37.908;2023-05-24T06:37:07;14.27;;;7.90;;
74939;SDS011;63505;45.226;37.908;2023-05-24T06:39:39;12.43;;;7.72;;
74939;SDS011;63505;45.226;37.908;2023-05-24T06:42:05;11.77;;;5.95;;
74939;SDS011;63505;45.226;37.908;2023-05-24T06:44:35;11.05;;;6.88;;
74939;SDS011;63505;45.226;37.908;2023-05-24T06:47:01;10.68;;;5.80;;
74939;SDS011;63505;45.226;37.908;2023-05-24T06:49:28;11.07;;;6.13;;
74939;SDS011;63505;45.226;37.908;2023-05-24T06:51:54;8.93;;;3.35;;
74939;SDS011;63505;45.226;37.908;2023-05-24T06:54:19;10.45;;;4.22;;
74939;SDS011;63505;45.226;37.908;2023-05-24T06:56:45;12.35;;;5.47;;
74939;SDS011;63505;45.226;37.908;2023-05-24T06:59:11;12.57;;;5.65;;
74939;SDS011;63505;45.226;37.908;2023-05-24T07:01:38;11.73;;;6.07;;
74939;SDS011;63505;45.226;37.908;2023-05-24T07:04:07;11.02;;;6.18;;
74939;SDS011;63505;45.226;37.908;2023-05-24T07:06:34;14.40;;;6.53;;
74939;SDS011;63505;45.226;37.908;2023-05-24T07:09:00;8.80;;;5.82;;
74939;SDS011;63505;45.226;37.908;2023-05-24T07:11:29;8.27;;;5.10;;
74939;SDS011;63505;45.226;37.908;2023-05-24T07:13:55;12.63;;;5.22;;
74939;SDS011;63505;45.226;37.908;2023-05-24T07:16:22;11.57;;;5.13;;
74939;SDS011;63505;45.226;37.908;2023-05-24T07:18:48;8.57;;;4.78;;
74939;SDS011;63505;45.226;37.908;2023-05-24T07:21:14;10.05;;;5.20;;
74939;SDS011;63505;45.226;37.908;2023-05-24T07:23:40;14.02;;;5.50;;
74939;SDS011;63505;45.226;37.908;2023-05-24T07:26:06;20.05;;;5.65;;
74939;SDS011;63505;45.226;37.908;2023-05-24T07:28:33;5.30;;;3.28;;
74939;SDS011;63505;45.226;37.908;2023-05-24T07:31:02;7.38;;;3.38;;
74939;SDS011;63505;45.226;37.908;2023-05-24T07:33:28;7.07;;;4.40;;
74939;SDS011;63505;45.226;37.908;2023-05-24T07:35:54;9.43;;;6.03;;
74939;SDS011;63505;45.226;37.908;2023-05-24T07:38:20;10.05;;;5.20;;
74939;SDS011;63505;45.226;37.908;2023-05-24T07:40:46;8.80;;;3.47;;
74939;SDS011;63505;45.226;37.908;2023-05-24T07:43:12;8.15;;;4.25;;
74939;SDS011;63505;45.226;37.908;2023-05-24T07:45:38;7.38;;;4.32;;
74939;SDS011;63505;45.226;37.908;2023-05-24T07:48:03;11.90;;;5.95;;
74939;SDS011;63505;45.226;37.908;2023-05-24T07:50:30;9.98;;;5.47;;
74939;SDS011;63505;45.226;37.908;2023-05-24T07:52:56;11.25;;;5.55;;
74939;SDS011;63505;45.226;37.908;2023-05-24T07:55:22;8.40;;;4.82;;
74939;SDS011;63505;45.226;37.908;2023-05-24T07:57:47;10.00;;;5.50;;
74939;SDS011;63505;45.226;37.908;2023-05-24T08:00:13;6.00;;;3.65;;
74939;SDS011;63505;45.226;37.908;2023-05-24T08:02:40;11.27;;;4.15;;
74939;SDS011;63505;45.226;37.908;2023-05-24T08:05:07;8.02;;;4.63;;
74939;SDS011;63505;45.226;37.908;2023-05-24T08:07:34;10.10;;;5.28;;
74939;SDS011;63505;45.226;37.908;2023-05-24T08:10:00;12.30;;;6.47;;
74939;SDS011;63505;45.226;37.908;2023-05-24T08:12:26;9.82;;;5.43;;
74939;SDS011;63505;45.226;37.908;2023-05-24T08:14:54;5.97;;;4.20;;
74939;SDS011;63505;45.226;37.908;2023-05-24T08:17:21;8.25;;;4.35;;
74939;SDS011;63505;45.226;37.908;2023-05-24T08:19:47;9.82;;;4.05;;
74939;SDS011;63505;45.226;37.908;2023-05-24T08:22:13;10.30;;;5.32;;
74939;SDS011;63505;45.226;37.908;2023-05-24T08:24:39;10.07;;;5.25;;
74939;SDS011;63505;45.226;37.908;2023-05-24T08:27:04;11.23;;;5.15;;
74939;SDS011;63505;45.226;37.908;2023-05-24T08:29:31;12.40;;;6.50;;
74939;SDS011;63505;45.226;37.908;2023-05-24T08:31:57;15.30;;;5.03;;
74939;SDS011;63505;45.226;37.908;2023-05-24T08:34:24;10.48;;;6.15;;
74939;SDS011;63505;45.226;37.908;2023-05-24T08:36:49;10.32;;;4.82;;
74939;SDS011;63505;45.226;37.908;2023-05-24T08:39:15;9.23;;;4.72;;
74939;SDS011;63505;45.226;37.908;2023-05-24T08:41:42;12.00;;;4.68;;
74939;SDS011;63505;45.226;37.908;2023-05-24T08:44:08;7.32;;;3.85;;
74939;SDS011;63505;45.226;37.908;2023-05-24T08:46:35;11.63;;;5.05;;
74939;SDS011;63505;45.226;37.908;2023-05-24T08:49:02;10.13;;;4.03;;
74939;SDS011;63505;45.226;37.908;2023-05-24T08:51:28;24.13;;;5.13;;
74939;SDS011;63505;45.226;37.908;2023-05-24T08:53:58;10.63;;;6.10;;
74939;SDS011;63505;45.226;37.908;2023-05-24T08:56:25;9.65;;;4.70;;
74939;SDS011;63505;45.226;37.908;2023-05-24T08:58:53;9.57;;;5.07;;
74939;SDS011;63505;45.226;37.908;2023-05-24T09:01:20;22.35;;;5.95;;
74939;SDS011;63505;45.226;37.908;2023-05-24T09:03:48;6.22;;;2.92;;
74939;SDS011;63505;45.226;37.908;2023-05-24T09:06:16;10.65;;;4.60;;
74939;SDS011;63505;45.226;37.908;2023-05-24T09:08:43;10.45;;;4.72;;
74939;SDS011;63505;45.226;37.908;2023-05-24T09:11:09;8.43;;;4.32;;
74939;SDS011;63505;45.226;37.908;2023-05-24T09:13:36;13.02;;;5.35;;
74939;SDS011;63505;45.226;37.908;2023-05-24T09:16:02;13.32;;;4.82;;
74939;SDS011;63505;45.226;37.908;2023-05-24T09:18:30;8.73;;;4.22;;
74939;SDS011;63505;45.226;37.908;2023-05-24T09:20:55;10.50;;;4.45;;
74939;SDS011;63505;45.226;37.908;2023-05-24T09:23:21;10.70;;;4.90;;
74939;SDS011;63505;45.226;37.908;2023-05-24T09:25:51;5.72;;;3.90;;
74939;SDS011;63505;45.226;37.908;2023-05-24T09:28:17;8.80;;;4.80;;
74939;SDS011;63505;45.226;37.908;2023-05-24T09:30:56;9.40;;;4.90;;
74939;SDS011;63505;45.226;37.908;2023-05-24T09:33:24;15.25;;;5.45;;
74939;SDS011;63505;45.226;37.908;2023-05-24T09:35:59;11.88;;;4.75;;
74939;SDS011;63505;45.226;37.908;2023-05-24T09:38:26;10.40;;;5.10;;
74939;SDS011;63505;45.226;37.908;2023-05-24T09:41:05;11.55;;;4.80;;
74939;SDS011;63505;45.226;37.908;2023-05-24T09:43:33;9.60;;;4.97;;
74939;SDS011;63505;45.226;37.908;2023-05-24T09:46:14;11.30;;;4.47;;
74939;SDS011;63505;45.226;37.908;2023-05-24T09:48:49;9.27;;;4.50;;
74939;SDS011;63505;45.226;37.908;2023-05-24T09:51:23;11.32;;;3.65;;
74939;SDS011;63505;45.226;37.908;2023-05-24T09:53:49;11.68;;;5.35;;
74939;SDS011;63505;45.226;37.908;2023-05-24T09:56:17;10.23;;;4.25;;
74939;SDS011;63505;45.226;37.908;2023-05-24T09:58:43;8.05;;;3.90;;
74939;SDS011;63505;45.226;37.908;2023-05-24T10:01:10;8.13;;;4.10;;
74939;SDS011;63505;45.226;37.908;2023-05-24T10:03:37;7.47;;;3.38;;
74939;SDS011;63505;45.226;37.908;2023-05-24T10:06:04;7.38;;;4.40;;
74939;SDS011;63505;45.226;37.908;2023-05-24T10:08:34;7.78;;;5.28;;
74939;SDS011;63505;45.226;37.908;2023-05-24T10:11:04;8.40;;;4.93;;
74939;SDS011;63505;45.226;37.908;2023-05-24T10:13:33;10.20;;;5.15;;
74939;SDS011;63505;45.226;37.908;2023-05-24T10:16:03;9.25;;;4.30;;
74939;SDS011;63505;45.226;37.908;2023-05-24T10:18:29;8.52;;;4.93;;
74939;SDS011;63505;45.226;37.908;2023-05-24T10:20:55;11.00;;;6.03;;
74939;SDS011;63505;45.226;37.908;2023-05-24T10:23:22;11.73;;;5.40;;
74939;SDS011;63505;45.226;37.908;2023-05-24T10:25:53;10.57;;;5.35;;
74939;SDS011;63505;45.226;37.908;2023-05-24T10:28:51;12.77;;;5.85;;
74939;SDS011;63505;45.226;37.908;2023-05-24T10:31:22;8.90;;;4.78;;
74939;SDS011;63505;45.226;37.908;2023-05-24T10:33:48;9.65;;;5.15;;
74939;SDS011;63505;45.226;37.908;2023-05-24T10:36:16;10.13;;;4.97;;
74939;SDS011;63505;45.226;37.908;2023-05-24T10:38:45;9.45;;;5.30;;
74939;SDS011;63505;45.226;37.908;2023-05-24T10:41:11;10.60;;;4.80;;
74939;SDS011;63505;45.226;37.908;2023-05-24T10:43:37;8.65;;;4.40;;
74939;SDS011;63505;45.226;37.908;2023-05-24T10:46:04;11.52;;;5.35;;
74939;SDS011;63505;45.226;37.908;2023-05-24T10:54:12;12.02;;;5.13;;
74939;SDS011;63505;45.226;37.908;2023-05-24T10:56:45;9.20;;;6.10;;
74939;SDS011;63505;45.226;37.908;2023-05-24T11:02:02;14.45;;;4.68;;
74939;SDS011;63505;45.226;37.908;2023-05-24T11:04:31;10.30;;;5.20;;
74939;SDS011;63505;45.226;37.908;2023-05-24T11:07:02;12.75;;;6.00;;
74939;SDS011;63505;45.226;37.908;2023-05-24T11:09:30;10.43;;;6.05;;
74939;SDS011;63505;45.226;37.908;2023-05-24T11:12:00;9.65;;;5.63;;
74939;SDS011;63505;45.226;37.908;2023-05-24T11:14:28;9.50;;;5.40;;
74939;SDS011;63505;45.226;37.908;2023-05-24T11:16:56;11.55;;;5.10;;
74939;SDS011;63505;45.226;37.908;2023-05-24T11:19:31;11.82;;;6.07;;
74939;SDS011;63505;45.226;37.908;2023-05-24T11:21:59;9.40;;;5.00;;
74939;SDS011;63505;45.226;37.908;2023-05-24T11:24:28;9.93;;;5.20;;
74939;SDS011;63505;45.226;37.908;2023-05-24T11:26:56;11.43;;;5.82;;
74939;SDS011;63505;45.226;37.908;2023-05-24T11:29:23;10.32;;;5.10;;
74939;SDS011;63505;45.226;37.908;2023-05-24T11:31:53;13.82;;;5.72;;
74939;SDS011;63505;45.226;37.908;2023-05-24T11:34:28;17.20;;;5.40;;
74939;SDS011;63505;45.226;37.908;2023-05-24T11:36:56;11.50;;;6.13;;
74939;SDS011;63505;45.226;37.908;2023-05-24T11:39:30;8.82;;;6.40;;
74939;SDS011;63505;45.226;37.908;2023-05-24T11:41:57;16.90;;;7.18;;
74939;SDS011;63505;45.226;37.908;2023-05-24T11:44:29;8.95;;;5.57;;
74939;SDS011;63505;45.226;37.908;2023-05-24T11:46:58;9.30;;;4.22;;
74939;SDS011;63505;45.226;37.908;2023-05-24T11:49:27;12.60;;;5.88;;
74939;SDS011;63505;45.226;37.908;2023-05-24T11:51:54;12.88;;;6.32;;
74939;SDS011;63505;45.226;37.908;2023-05-24T11:54:24;10.77;;;5.40;;
74939;SDS011;63505;45.226;37.908;2023-05-24T11:56:52;14.90;;;5.15;;
74939;SDS011;63505;45.226;37.908;2023-05-24T11:59:23;9.82;;;4.78;;
74939;SDS011;63505;45.226;37.908;2023-05-24T12:01:56;10.57;;;4.70;;
74939;SDS011;63505;45.226;37.908;2023-05-24T12:04:24;8.32;;;4.78;;
74939;SDS011;63505;45.226;37.908;2023-05-24T12:06:50;9.43;;;5.18;;
74939;SDS011;63505;45.226;37.908;2023-05-24T12:09:16;10.90;;;4.68;;
74939;SDS011;63505;45.226;37.908;2023-05-24T12:11:44;7.97;;;4.50;;
74939;SDS011;63505;45.226;37.908;2023-05-24T12:14:13;16.33;;;5.38;;
74939;SDS011;63505;45.226;37.908;2023-05-24T12:16:43;9.90;;;4.20;;
74939;SDS011;63505;45.226;37.908;2023-05-24T12:19:20;8.75;;;4.70;;
74939;SDS011;63505;45.226;37.908;2023-05-24T12:21:47;7.97;;;4.68;;
74939;SDS011;63505;45.226;37.908;2023-05-24T12:24:16;9.63;;;4.60;;
74939;SDS011;63505;45.226;37.908;2023-05-24T12:26:45;10.13;;;4.93;;
74939;SDS011;63505;45.226;37.908;2023-05-24T12:29:12;9.77;;;4.43;;
74939;SDS011;63505;45.226;37.908;2023-05-24T12:31:39;9.48;;;4.38;;
74939;SDS011;63505;45.226;37.908;2023-05-24T12:34:07;6.70;;;3.53;;
74939;SDS011;63505;45.226;37.908;2023-05-24T12:36:39;6.82;;;3.83;;
74939;SDS011;63505;45.226;37.908;2023-05-24T12:39:23;11.23;;;4.50;;
74939;SDS011;63505;45.226;37.908;2023-05-24T12:41:56;8.80;;;5.07;;
74939;SDS011;63505;45.226;37.908;2023-05-24T12:44:23;10.48;;;4.80;;
74939;SDS011;63505;45.226;37.908;2023-05-24T12:46:54;12.32;;;3.40;;
74939;SDS011;63505;45.226;37.908;2023-05-24T12:49:24;6.40;;;3.83;;
74939;SDS011;63505;45.226;37.908;2023-05-24T12:51:51;7.88;;;5.00;;
74939;SDS011;63505;45.226;37.908;2023-05-24T12:54:18;19.23;;;6.03;;
74939;SDS011;63505;45.226;37.908;2023-05-24T12:56:47;9.05;;;4.47;;
74939;SDS011;63505;45.226;37.908;2023-05-24T12:59:13;13.82;;;5.13;;
74939;SDS011;63505;45.226;37.908;2023-05-24T13:01:39;7.03;;;3.33;;
74939;SDS011;63505;45.226;37.908;2023-05-24T13:04:05;15.32;;;5.20;;
74939;SDS011;63505;45.226;37.908;2023-05-24T13:06:32;10.32;;;4.53;;
74939;SDS011;63505;45.226;37.908;2023-05-24T13:08:58;10.93;;;5.35;;
74939;SDS011;63505;45.226;37.908;2023-05-24T13:11:26;10.48;;;4.88;;
74939;SDS011;63505;45.226;37.908;2023-05-24T13:13:52;11.23;;;4.82;;
74939;SDS011;63505;45.226;37.908;2023-05-24T13:16:19;10.05;;;4.00;;
74939;SDS011;63505;45.226;37.908;2023-05-24T13:18:45;12.82;;;4.03;;
74939;SDS011;63505;45.226;37.908;2023-05-24T13:21:11;8.52;;;4.10;;
74939;SDS011;63505;45.226;37.908;2023-05-24T13:23:37;9.98;;;4.90;;
74939;SDS011;63505;45.226;37.908;2023-05-24T13:26:03;9.30;;;4.35;;
74939;SDS011;63505;45.226;37.908;2023-05-24T13:28:31;10.63;;;5.03;;
74939;SDS011;63505;45.226;37.908;2023-05-24T13:30:58;8.07;;;4.30;;
74939;SDS011;63505;45.226;37.908;2023-05-24T13:33:24;11.15;;;4.60;;
74939;SDS011;63505;45.226;37.908;2023-05-24T13:35:51;9.75;;;4.63;;
74939;SDS011;63505;45.226;37.908;2023-05-24T13:38:18;12.57;;;4.22;;
74939;SDS011;63505;45.226;37.908;2023-05-24T13:40:45;13.48;;;5.53;;
74939;SDS011;63505;45.226;37.908;2023-05-24T13:43:11;6.57;;;3.13;;
74939;SDS011;63505;45.226;37.908;2023-05-24T13:45:37;9.13;;;4.03;;
74939;SDS011;63505;45.226;37.908;2023-05-24T13:48:03;9.23;;;4.68;;
74939;SDS011;63505;45.226;37.908;2023-05-24T13:50:30;9.02;;;4.50;;
74939;SDS011;63505;45.226;37.908;2023-05-24T13:52:59;10.95;;;4.32;;
74939;SDS011;63505;45.226;37.908;2023-05-24T13:55:29;10.65;;;5.25;;
74939;SDS011;63505;45.226;37.908;2023-05-24T13:57:56;12.60;;;4.78;;
74939;SDS011;63505;45.226;37.908;2023-05-24T14:00:23;8.43;;;5.03;;
74939;SDS011;63505;45.226;37.908;2023-05-24T14:02:49;10.57;;;4.35;;
74939;SDS011;63505;45.226;37.908;2023-05-24T14:05:16;10.32;;;4.63;;
74939;SDS011;63505;45.226;37.908;2023-05-24T14:07:42;10.30;;;5.57;;
74939;SDS011;63505;45.226;37.908;2023-05-24T14:10:08;13.07;;;6.40;;
74939;SDS011;63505;45.226;37.908;2023-05-24T14:12:35;12.48;;;5.93;;
74939;SDS011;63505;45.226;37.908;2023-05-24T14:15:01;10.90;;;5.70;;
74939;SDS011;63505;45.226;37.908;2023-05-24T14:17:29;11.20;;;5.90;;
74939;SDS011;63505;45.226;37.908;2023-05-24T14:19:55;9.68;;;4.93;;
74939;SDS011;63505;45.226;37.908;2023-05-24T14:22:21;13.65;;;4.88;;
74939;SDS011;63505;45.226;37.908;2023-05-24T14:24:49;17.75;;;6.45;;
74939;SDS011;63505;45.226;37.908;2023-05-24T14:27:15;11.02;;;5.45;;
74939;SDS011;63505;45.226;37.908;2023-05-24T14:29:41;9.85;;;5.50;;
74939;SDS011;63505;45.226;37.908;2023-05-24T14:32:07;12.20;;;5.30;;
74939;SDS011;63505;45.226;37.908;2023-05-24T14:34:34;15.10;;;5.93;;
74939;SDS011;63505;45.226;37.908;2023-05-24T14:37:01;11.13;;;5.00;;
74939;SDS011;63505;45.226;37.908;2023-05-24T14:39:27;9.80;;;4.97;;
74939;SDS011;63505;45.226;37.908;2023-05-24T14:41:52;11.38;;;5.82;;
74939;SDS011;63505;45.226;37.908;2023-05-24T14:44:18;9.77;;;5.03;;
74939;SDS011;63505;45.226;37.908;2023-05-24T14:46:45;11.18;;;5.32;;